Terminal Aerodrome Forecast
Issued by NWS

Home | Current Version | Previous Version | Text Only | Print | Product List | Glossary On
Versions: 1 2 3 4 5 6 7 8 9 10 11 12 13 14 15 16 17 18 19 20 21
000
FTUS45 KGJT 291136 AAA
TAFEGE
TAF AMD
KEGE 291136Z 2912/3012 08004KT P6SM VCSH OVC017
      TEMPO 2912/2915 6SM -RA SCT012 OVC017
     FM291800 VRB03KT P6SM -SHRA OVC050
     FM292100 30005KT P6SM VCSH OVC050
     FM300100 28006KT P6SM VCSH OVC030
     FM300400 23004KT P6SM VCSH OVC020
      AMD LTD TO CLD VIS AND WIND TIL 291300=

USA.gov is the U.S. government's official web portal to all federal, state and local government web resources and services.